sensor_id;sensor_type;location;lat;lon;timestamp;temperature;humidity
30336;DHT22;17142;47.990;7.846;2022-08-24T06:03:02;24.00;69.90
30336;DHT22;17142;47.990;7.846;2022-08-24T06:05:27;24.30;68.70
30336;DHT22;17142;47.990;7.846;2022-08-24T06:07:58;24.50;67.70
30336;DHT22;17142;47.990;7.846;2022-08-24T06:10:25;24.50;66.20
30336;DHT22;17142;47.990;7.846;2022-08-24T06:12:53;24.50;65.90
30336;DHT22;17142;47.990;7.846;2022-08-24T06:15:19;24.60;65.70
30336;DHT22;17142;47.990;7.846;2022-08-24T06:17:46;24.70;65.60
30336;DHT22;17142;47.990;7.846;2022-08-24T06:20:17;25.00;64.80
30336;DHT22;17142;47.990;7.846;2022-08-24T06:22:43;25.20;64.40
30336;DHT22;17142;47.990;7.846;2022-08-24T06:25:08;25.40;64.10
30336;DHT22;17142;47.990;7.846;2022-08-24T06:27:53;25.60;62.70
30336;DHT22;17142;47.990;7.846;2022-08-24T06:30:21;25.60;63.00
30336;DHT22;17142;47.990;7.846;2022-08-24T06:32:47;25.90;62.80
30336;DHT22;17142;47.990;7.846;2022-08-24T06:35:15;26.10;60.40
30336;DHT22;17142;47.990;7.846;2022-08-24T06:37:40;26.20;60.10
30336;DHT22;17142;47.990;7.846;2022-08-24T06:40:09;26.50;59.40
30336;DHT22;17142;47.990;7.846;2022-08-24T06:42:35;26.80;58.80
30336;DHT22;17142;47.990;7.846;2022-08-24T06:45:01;27.20;57.60
30336;DHT22;17142;47.990;7.846;2022-08-24T06:47:27;27.50;57.20
30336;DHT22;17142;47.990;7.846;2022-08-24T06:49:53;28.00;56.30
30336;DHT22;17142;47.990;7.846;2022-08-24T06:52:23;28.50;55.20
30336;DHT22;17142;47.990;7.846;2022-08-24T06:54:51;28.70;54.50
30336;DHT22;17142;47.990;7.846;2022-08-24T06:57:19;28.80;54.00
30336;DHT22;17142;47.990;7.846;2022-08-24T06:59:48;29.00;53.10
30336;DHT22;17142;47.990;7.846;2022-08-24T07:02:13;29.30;52.80
30336;DHT22;17142;47.990;7.846;2022-08-24T07:04:46;29.70;51.80
30336;DHT22;17142;47.990;7.846;2022-08-24T07:07:14;29.80;51.90
30336;DHT22;17142;47.990;7.846;2022-08-24T07:09:40;30.00;51.60
30336;DHT22;17142;47.990;7.846;2022-08-24T07:12:08;30.40;50.50
30336;DHT22;17142;47.990;7.846;2022-08-24T07:14:36;30.30;50.50
30336;DHT22;17142;47.990;7.846;2022-08-24T07:17:01;30.30;50.30
30336;DHT22;17142;47.990;7.846;2022-08-24T07:19:29;30.10;50.30
30336;DHT22;17142;47.990;7.846;2022-08-24T07:21:57;29.70;50.60
30336;DHT22;17142;47.990;7.846;2022-08-24T07:24:24;29.40;50.90
30336;DHT22;17142;47.990;7.846;2022-08-24T07:26:54;28.90;51.80
30336;DHT22;17142;47.990;7.846;2022-08-24T07:29:20;28.50;52.50
30336;DHT22;17142;47.990;7.846;2022-08-24T07:31:46;28.20;53.10
30336;DHT22;17142;47.990;7.846;2022-08-24T07:34:13;28.20;53.00
30336;DHT22;17142;47.990;7.846;2022-08-24T07:36:40;28.10;52.70
30336;DHT22;17142;47.990;7.846;2022-08-24T07:39:06;28.00;52.90
30336;DHT22;17142;47.990;7.846;2022-08-24T07:41:37;28.10;52.30
30336;DHT22;17142;47.990;7.846;2022-08-24T07:44:03;28.00;52.40
30336;DHT22;17142;47.990;7.846;2022-08-24T07:46:29;27.80;52.40
30336;DHT22;17142;47.990;7.846;2022-08-24T07:48:57;27.70;52.30
30336;DHT22;17142;47.990;7.846;2022-08-24T07:51:25;27.90;52.40
30336;DHT22;17142;47.990;7.846;2022-08-24T07:53:51;27.90;52.10
30336;DHT22;17142;47.990;7.846;2022-08-24T07:56:17;27.80;52.50
30336;DHT22;17142;47.990;7.846;2022-08-24T07:58:45;27.90;53.10
30336;DHT22;17142;47.990;7.846;2022-08-24T08:01:11;27.80;53.40
30336;DHT22;17142;47.990;7.846;2022-08-24T08:03:37;27.80;54.00
30336;DHT22;17142;47.990;7.846;2022-08-24T08:06:06;28.00;53.50
30336;DHT22;17142;47.990;7.846;2022-08-24T08:08:35;28.10;54.00
30336;DHT22;17142;47.990;7.846;2022-08-24T08:11:01;28.30;52.60
30336;DHT22;17142;47.990;7.846;2022-08-24T08:13:28;28.40;53.10
30336;DHT22;17142;47.990;7.846;2022-08-24T08:15:57;28.40;52.80
30336;DHT22;17142;47.990;7.846;2022-08-24T08:18:24;28.40;52.90
30336;DHT22;17142;47.990;7.846;2022-08-24T08:20:52;28.40;52.30
30336;DHT22;17142;47.990;7.846;2022-08-24T08:23:21;28.10;53.00
30336;DHT22;17142;47.990;7.846;2022-08-24T08:26:06;28.30;53.00
30336;DHT22;17142;47.990;7.846;2022-08-24T08:28:33;28.30;52.80
30336;DHT22;17142;47.990;7.846;2022-08-24T08:31:03;28.40;52.40
30336;DHT22;17142;47.990;7.846;2022-08-24T08:33:30;28.30;52.60
30336;DHT22;17142;47.990;7.846;2022-08-24T08:36:04;27.80;52.40
30336;DHT22;17142;47.990;7.846;2022-08-24T08:38:33;27.60;53.10
30336;DHT22;17142;47.990;7.846;2022-08-24T08:41:11;27.80;53.50
30336;DHT22;17142;47.990;7.846;2022-08-24T08:55:03;27.00;53.90
30336;DHT22;17142;47.990;7.846;2022-08-24T08:57:41;26.80;54.20
30336;DHT22;17142;47.990;7.846;2022-08-24T09:00:19;26.80;55.30
30336;DHT22;17142;47.990;7.846;2022-08-24T09:19:21;27.20;56.40
30336;DHT22;17142;47.990;7.846;2022-08-24T09:22:16;27.50;56.00
30336;DHT22;17142;47.990;7.846;2022-08-24T09:32:58;28.40;55.60
30336;DHT22;17142;47.990;7.846;2022-08-24T09:55:33;28.10;54.60
30336;DHT22;17142;47.990;7.846;2022-08-24T10:01:14;28.30;54.80
30336;DHT22;17142;47.990;7.846;2022-08-24T10:06:35;28.30;54.80
30336;DHT22;17142;47.990;7.846;2022-08-24T10:14:53;28.60;54.00
30336;DHT22;17142;47.990;7.846;2022-08-24T10:20:18;28.90;52.90
30336;DHT22;17142;47.990;7.846;2022-08-24T10:25:28;29.10;52.70
30336;DHT22;17142;47.990;7.846;2022-08-24T10:31:13;29.40;51.80
30336;DHT22;17142;47.990;7.846;2022-08-24T10:33:53;29.70;51.00
30336;DHT22;17142;47.990;7.846;2022-08-24T10:45:51;30.50;43.80
30336;DHT22;17142;47.990;7.846;2022-08-24T10:53:29;30.70;40.30
30336;DHT22;17142;47.990;7.846;2022-08-24T10:58:43;30.70;39.40
30336;DHT22;17142;47.990;7.846;2022-08-24T11:01:23;30.70;40.00
30336;DHT22;17142;47.990;7.846;2022-08-24T11:06:20;30.90;39.40
30336;DHT22;17142;47.990;7.846;2022-08-24T11:08:54;31.00;39.20
30336;DHT22;17142;47.990;7.846;2022-08-24T11:11:27;31.00;39.60
30336;DHT22;17142;47.990;7.846;2022-08-24T11:14:04;31.10;39.30
30336;DHT22;17142;47.990;7.846;2022-08-24T11:16:39;31.20;39.20
30336;DHT22;17142;47.990;7.846;2022-08-24T11:19:30;31.20;38.80
30336;DHT22;17142;47.990;7.846;2022-08-24T11:21:58;31.30;38.30
30336;DHT22;17142;47.990;7.846;2022-08-24T11:24:41;31.40;38.60
30336;DHT22;17142;47.990;7.846;2022-08-24T11:27:25;31.40;38.70
30336;DHT22;17142;47.990;7.846;2022-08-24T11:29:56;31.50;38.30
30336;DHT22;17142;47.990;7.846;2022-08-24T11:38:17;31.40;37.10
30336;DHT22;17142;47.990;7.846;2022-08-24T11:49:21;31.10;37.60
30336;DHT22;17142;47.990;7.846;2022-08-24T11:56:51;31.00;37.60
30336;DHT22;17142;47.990;7.846;2022-08-24T12:02:12;31.30;38.80
30336;DHT22;17142;47.990;7.846;2022-08-24T12:05:00;31.50;37.70
30336;DHT22;17142;47.990;7.846;2022-08-24T12:13:05;31.80;37.30
30336;DHT22;17142;47.990;7.846;2022-08-24T12:15:38;31.80;37.30
30336;DHT22;17142;47.990;7.846;2022-08-24T12:20:59;31.70;36.90
30336;DHT22;17142;47.990;7.846;2022-08-24T12:23:36;31.70;36.30
30336;DHT22;17142;47.990;7.846;2022-08-24T12:26:24;31.50;37.10
30336;DHT22;17142;47.990;7.846;2022-08-24T12:28:59;31.50;36.70
30336;DHT22;17142;47.990;7.846;2022-08-24T12:34:09;31.70;36.00
30336;DHT22;17142;47.990;7.846;2022-08-24T12:39:25;31.90;34.30
30336;DHT22;17142;47.990;7.846;2022-08-24T12:47:08;31.60;34.30
30336;DHT22;17142;47.990;7.846;2022-08-24T12:49:48;31.80;34.60
30336;DHT22;17142;47.990;7.846;2022-08-24T13:00:27;32.40;33.80
30336;DHT22;17142;47.990;7.846;2022-08-24T13:03:06;32.50;34.00
30336;DHT22;17142;47.990;7.846;2022-08-24T13:05:44;32.40;33.70
30336;DHT22;17142;47.990;7.846;2022-08-24T13:08:21;32.40;34.10
30336;DHT22;17142;47.990;7.846;2022-08-24T13:11:36;32.20;33.70
30336;DHT22;17142;47.990;7.846;2022-08-24T13:32:38;31.70;33.60
30336;DHT22;17142;47.990;7.846;2022-08-24T13:57:41;32.10;33.60
30336;DHT22;17142;47.990;7.846;2022-08-24T14:08:54;31.90;32.00
30336;DHT22;17142;47.990;7.846;2022-08-24T14:11:57;31.90;31.70
30336;DHT22;17142;47.990;7.846;2022-08-24T14:14:53;31.70;31.20
30336;DHT22;17142;47.990;7.846;2022-08-24T14:23:48;31.80;32.00
30336;DHT22;17142;47.990;7.846;2022-08-24T14:40:33;31.80;30.40
30336;DHT22;17142;47.990;7.846;2022-08-24T14:48:47;31.70;30.00
30336;DHT22;17142;47.990;7.846;2022-08-24T14:57:04;31.40;29.70
30336;DHT22;17142;47.990;7.846;2022-08-24T15:05:00;31.50;29.60
30336;DHT22;17142;47.990;7.846;2022-08-24T15:07:34;31.50;29.70
30336;DHT22;17142;47.990;7.846;2022-08-24T15:10:10;31.50;29.20
30336;DHT22;17142;47.990;7.846;2022-08-24T15:12:52;31.70;29.00
30336;DHT22;17142;47.990;7.846;2022-08-24T15:23:52;31.60;29.50
30336;DHT22;17142;47.990;7.846;2022-08-24T15:26:37;31.70;29.30
30336;DHT22;17142;47.990;7.846;2022-08-24T15:29:22;31.80;29.30
30336;DHT22;17142;47.990;7.846;2022-08-24T15:32:05;31.80;29.50
30336;DHT22;17142;47.990;7.846;2022-08-24T15:37:14;31.70;29.70
30336;DHT22;17142;47.990;7.846;2022-08-24T15:39:40;31.70;29.50
30336;DHT22;17142;47.990;7.846;2022-08-24T15:42:13;31.80;29.80
30336;DHT22;17142;47.990;7.846;2022-08-24T15:44:41;31.80;29.90
30336;DHT22;17142;47.990;7.846;2022-08-24T15:47:29;31.70;29.90
30336;DHT22;17142;47.990;7.846;2022-08-24T15:50:03;31.50;30.40
30336;DHT22;17142;47.990;7.846;2022-08-24T15:55:40;31.40;31.10
30336;DHT22;17142;47.990;7.846;2022-08-24T16:00:46;31.20;30.80
30336;DHT22;17142;47.990;7.846;2022-08-24T16:06:41;31.00;30.10
30336;DHT22;17142;47.990;7.846;2022-08-24T16:14:27;30.90;30.20
30336;DHT22;17142;47.990;7.846;2022-08-24T16:16:54;31.00;29.80
30336;DHT22;17142;47.990;7.846;2022-08-24T16:19:32;31.00;30.10
30336;DHT22;17142;47.990;7.846;2022-08-24T16:24:35;30.90;30.60
30336;DHT22;17142;47.990;7.846;2022-08-24T16:27:08;30.80;30.80
30336;DHT22;17142;47.990;7.846;2022-08-24T16:32:27;30.60;31.20
30336;DHT22;17142;47.990;7.846;2022-08-24T16:37:32;30.50;31.90
30336;DHT22;17142;47.990;7.846;2022-08-24T16:40:00;30.60;32.00
30336;DHT22;17142;47.990;7.846;2022-08-24T16:42:31;30.70;32.10
30336;DHT22;17142;47.990;7.846;2022-08-24T16:44:58;30.70;32.20
30336;DHT22;17142;47.990;7.846;2022-08-24T16:47:26;30.70;32.10
30336;DHT22;17142;47.990;7.846;2022-08-24T16:49:52;30.60;32.60
30336;DHT22;17142;47.990;7.846;2022-08-24T16:52:21;30.50;32.50
30336;DHT22;17142;47.990;7.846;2022-08-24T16:54:47;30.50;32.70
30336;DHT22;17142;47.990;7.846;2022-08-24T16:57:23;30.40;32.80
30336;DHT22;17142;47.990;7.846;2022-08-24T16:59:55;30.30;33.30
30336;DHT22;17142;47.990;7.846;2022-08-24T17:02:24;30.20;33.30
30336;DHT22;17142;47.990;7.846;2022-08-24T17:04:50;30.10;33.60
30336;DHT22;17142;47.990;7.846;2022-08-24T17:07:22;30.10;33.80
30336;DHT22;17142;47.990;7.846;2022-08-24T17:09:50;30.00;34.10
30336;DHT22;17142;47.990;7.846;2022-08-24T17:12:18;29.80;34.40
30336;DHT22;17142;47.990;7.846;2022-08-24T17:14:47;29.80;34.40
30336;DHT22;17142;47.990;7.846;2022-08-24T17:17:18;29.70;34.80
30336;DHT22;17142;47.990;7.846;2022-08-24T17:19:47;29.70;35.00
30336;DHT22;17142;47.990;7.846;2022-08-24T17:22:13;29.60;35.40
30336;DHT22;17142;47.990;7.846;2022-08-24T17:24:40;29.50;35.60
30336;DHT22;17142;47.990;7.846;2022-08-24T17:27:05;29.40;36.00
30336;DHT22;17142;47.990;7.846;2022-08-24T17:29:34;29.40;36.10
30336;DHT22;17142;47.990;7.846;2022-08-24T17:32:00;29.50;36.10
30336;DHT22;17142;47.990;7.846;2022-08-24T17:34:26;29.40;36.20
30336;DHT22;17142;47.990;7.846;2022-08-24T17:36:56;29.40;36.70
30336;DHT22;17142;47.990;7.846;2022-08-24T17:39:22;29.40;36.70
30336;DHT22;17142;47.990;7.846;2022-08-24T17:41:52;29.30;36.80
30336;DHT22;17142;47.990;7.846;2022-08-24T17:44:23;29.30;37.00
30336;DHT22;17142;47.990;7.846;2022-08-24T17:46:55;29.20;37.10
30336;DHT22;17142;47.990;7.846;2022-08-24T17:49:22;29.10;37.50
30336;DHT22;17142;47.990;7.846;2022-08-24T17:51:48;29.00;37.80
30336;DHT22;17142;47.990;7.846;2022-08-24T17:54:15;29.00;38.10
30336;DHT22;17142;47.990;7.846;2022-08-24T17:56:41;28.90;38.20
30336;DHT22;17142;47.990;7.846;2022-08-24T17:59:08;28.90;38.50
30336;DHT22;17142;47.990;7.846;2022-08-24T18:01:52;28.80;38.80
30336;DHT22;17142;47.990;7.846;2022-08-24T18:04:21;28.80;38.80
30336;DHT22;17142;47.990;7.846;2022-08-24T18:06:50;29.00;38.70
30336;DHT22;17142;47.990;7.846;2022-08-24T18:11:56;29.00;39.00
30336;DHT22;17142;47.990;7.846;2022-08-24T18:14:25;28.70;39.30
30336;DHT22;17142;47.990;7.846;2022-08-24T18:16:53;28.50;39.70
30336;DHT22;17142;47.990;7.846;2022-08-24T18:19:22;28.10;40.20
30336;DHT22;17142;47.990;7.846;2022-08-24T18:21:49;28.00;40.60
30336;DHT22;17142;47.990;7.846;2022-08-24T18:24:17;27.80;40.80
30336;DHT22;17142;47.990;7.846;2022-08-24T18:26:45;27.60;41.20
30336;DHT22;17142;47.990;7.846;2022-08-24T18:29:22;27.40;42.00
30336;DHT22;17142;47.990;7.846;2022-08-24T18:31:48;27.20;42.60
30336;DHT22;17142;47.990;7.846;2022-08-24T18:34:19;26.90;43.40
30336;DHT22;17142;47.990;7.846;2022-08-24T18:36:47;26.70;44.20
30336;DHT22;17142;47.990;7.846;2022-08-24T18:39:13;26.50;45.10
30336;DHT22;17142;47.990;7.846;2022-08-24T18:41:43;26.30;45.60
30336;DHT22;17142;47.990;7.846;2022-08-24T18:44:09;26.20;46.40
30336;DHT22;17142;47.990;7.846;2022-08-24T18:46:40;26.10;47.30
30336;DHT22;17142;47.990;7.846;2022-08-24T18:49:05;25.90;48.00
30336;DHT22;17142;47.990;7.846;2022-08-24T18:51:34;25.90;48.70
30336;DHT22;17142;47.990;7.846;2022-08-24T18:54:05;25.80;49.00
30336;DHT22;17142;47.990;7.846;2022-08-24T18:56:31;25.70;50.10
30336;DHT22;17142;47.990;7.846;2022-08-24T18:58:56;25.50;50.50
30336;DHT22;17142;47.990;7.846;2022-08-24T19:01:23;25.50;51.10
30336;DHT22;17142;47.990;7.846;2022-08-24T19:03:49;25.30;51.80
30336;DHT22;17142;47.990;7.846;2022-08-24T19:06:16;25.30;52.50
30336;DHT22;17142;47.990;7.846;2022-08-24T19:08:41;25.30;53.00
30336;DHT22;17142;47.990;7.846;2022-08-24T19:11:08;25.20;53.40
30336;DHT22;17142;47.990;7.846;2022-08-24T19:13:36;25.20;53.90
30336;DHT22;17142;47.990;7.846;2022-08-24T19:16:04;25.00;54.30
30336;DHT22;17142;47.990;7.846;2022-08-24T19:18:30;25.00;54.60
30336;DHT22;17142;47.990;7.846;2022-08-24T19:20:56;24.90;55.20
30336;DHT22;17142;47.990;7.846;2022-08-24T19:23:30;24.90;55.90
30336;DHT22;17142;47.990;7.846;2022-08-24T19:26:00;24.90;56.50
30336;DHT22;17142;47.990;7.846;2022-08-24T19:28:26;24.90;56.40
30336;DHT22;17142;47.990;7.846;2022-08-24T19:30:57;24.90;57.10
30336;DHT22;17142;47.990;7.846;2022-08-24T19:33:26;24.80;57.50
30336;DHT22;17142;47.990;7.846;2022-08-24T19:35:52;24.80;57.80
30336;DHT22;17142;47.990;7.846;2022-08-24T19:38:18;24.80;58.00
30336;DHT22;17142;47.990;7.846;2022-08-24T19:40:47;24.80;58.60
30336;DHT22;17142;47.990;7.846;2022-08-24T19:43:14;24.80;58.60
30336;DHT22;17142;47.990;7.846;2022-08-24T19:45:40;24.70;59.20
30336;DHT22;17142;47.990;7.846;2022-08-24T19:48:24;24.70;59.30
30336;DHT22;17142;47.990;7.846;2022-08-24T19:50:52;24.70;59.70
30336;DHT22;17142;47.990;7.846;2022-08-24T19:53:18;24.60;59.80
30336;DHT22;17142;47.990;7.846;2022-08-24T19:55:50;24.70;59.90
30336;DHT22;17142;47.990;7.846;2022-08-24T19:58:26;24.60;60.30
30336;DHT22;17142;47.990;7.846;2022-08-24T20:01:04;24.60;61.40
30336;DHT22;17142;47.990;7.846;2022-08-24T20:03:33;24.60;61.50
30336;DHT22;17142;47.990;7.846;2022-08-24T20:06:01;24.70;61.50
30336;DHT22;17142;47.990;7.846;2022-08-24T20:08:27;24.50;62.30
30336;DHT22;17142;47.990;7.846;2022-08-24T20:10:55;24.40;62.60
30336;DHT22;17142;47.990;7.846;2022-08-24T20:13:25;24.40;62.90
30336;DHT22;17142;47.990;7.846;2022-08-24T20:15:55;24.40;63.60
30336;DHT22;17142;47.990;7.846;2022-08-24T20:18:28;24.30;64.20
30336;DHT22;17142;47.990;7.846;2022-08-24T20:20:57;24.20;64.20
30336;DHT22;17142;47.990;7.846;2022-08-24T20:23:23;24.20;64.60
30336;DHT22;17142;47.990;7.846;2022-08-24T20:25:49;24.10;64.80
30336;DHT22;17142;47.990;7.846;2022-08-24T20:28:17;24.10;65.70
30336;DHT22;17142;47.990;7.846;2022-08-24T20:30:43;24.10;66.00
30336;DHT22;17142;47.990;7.846;2022-08-24T20:33:16;24.00;66.10
30336;DHT22;17142;47.990;7.846;2022-08-24T20:35:43;24.00;66.70
30336;DHT22;17142;47.990;7.846;2022-08-24T20:38:12;24.00;67.30
30336;DHT22;17142;47.990;7.846;2022-08-24T20:40:39;23.90;67.60
30336;DHT22;17142;47.990;7.846;2022-08-24T20:43:05;23.90;67.80
30336;DHT22;17142;47.990;7.846;2022-08-24T20:45:31;24.00;67.90
30336;DHT22;17142;47.990;7.846;2022-08-24T20:47:57;24.00;68.30
30336;DHT22;17142;47.990;7.846;2022-08-24T20:50:26;23.90;68.40
30336;DHT22;17142;47.990;7.846;2022-08-24T20:52:56;23.90;68.70
30336;DHT22;17142;47.990;7.846;2022-08-24T20:55:22;23.80;68.60
30336;DHT22;17142;47.990;7.846;2022-08-24T20:57:54;23.80;69.50
30336;DHT22;17142;47.990;7.846;2022-08-24T21:00:22;23.80;69.80
30336;DHT22;17142;47.990;7.846;2022-08-24T21:02:51;23.70;70.30
30336;DHT22;17142;47.990;7.846;2022-08-24T21:05:17;23.70;70.60
30336;DHT22;17142;47.990;7.846;2022-08-24T21:07:42;23.60;70.70
30336;DHT22;17142;47.990;7.846;2022-08-24T21:10:18;23.50;71.20
30336;DHT22;17142;47.990;7.846;2022-08-24T21:12:47;23.40;71.90
30336;DHT22;17142;47.990;7.846;2022-08-24T21:15:14;23.40;72.40
30336;DHT22;17142;47.990;7.846;2022-08-24T21:17:40;23.30;72.30
30336;DHT22;17142;47.990;7.846;2022-08-24T21:20:10;23.30;72.80
30336;DHT22;17142;47.990;7.846;2022-08-24T21:22:36;23.20;73.40
30336;DHT22;17142;47.990;7.846;2022-08-24T21:25:07;23.20;73.90
30336;DHT22;17142;47.990;7.846;2022-08-24T21:27:35;23.20;74.20
30336;DHT22;17142;47.990;7.846;2022-08-24T21:30:05;23.10;74.50
30336;DHT22;17142;47.990;7.846;2022-08-24T21:32:31;23.00;75.10
30336;DHT22;17142;47.990;7.846;2022-08-24T21:35:15;23.00;75.40
30336;DHT22;17142;47.990;7.846;2022-08-24T21:37:44;23.00;75.70
30336;DHT22;17142;47.990;7.846;2022-08-24T21:40:10;23.00;75.70
30336;DHT22;17142;47.990;7.846;2022-08-24T21:42:36;23.00;76.20
30336;DHT22;17142;47.990;7.846;2022-08-24T21:45:02;23.00;76.50
30336;DHT22;17142;47.990;7.846;2022-08-24T21:47:28;23.00;76.90
30336;DHT22;17142;47.990;7.846;2022-08-24T21:49:53;22.90;77.00
30336;DHT22;17142;47.990;7.846;2022-08-24T21:52:20;22.90;77.50
30336;DHT22;17142;47.990;7.846;2022-08-24T21:54:46;22.90;77.80
30336;DHT22;17142;47.990;7.846;2022-08-24T21:57:13;22.90;78.10
30336;DHT22;17142;47.990;7.846;2022-08-24T21:59:40;22.90;78.20
30336;DHT22;17142;47.990;7.846;2022-08-24T22:02:06;22.80;78.60
30336;DHT22;17142;47.990;7.846;2022-08-24T22:04:32;22.70;79.10
30336;DHT22;17142;47.990;7.846;2022-08-24T22:07:02;22.60;79.80
30336;DHT22;17142;47.990;7.846;2022-08-24T22:09:29;22.60;80.40
30336;DHT22;17142;47.990;7.846;2022-08-24T22:11:57;22.50;80.70
30336;DHT22;17142;47.990;7.846;2022-08-24T22:14:24;22.40;81.80
30336;DHT22;17142;47.990;7.846;2022-08-24T22:16:53;22.30;82.30
30336;DHT22;17142;47.990;7.846;2022-08-24T22:19:19;22.20;82.80
30336;DHT22;17142;47.990;7.846;2022-08-24T22:21:46;22.20;83.10
30336;DHT22;17142;47.990;7.846;2022-08-24T22:24:12;22.20;83.10
30336;DHT22;17142;47.990;7.846;2022-08-24T22:26:38;22.10;84.50
30336;DHT22;17142;47.990;7.846;2022-08-24T22:29:05;22.10;84.60
30336;DHT22;17142;47.990;7.846;2022-08-24T22:31:36;22.10;84.70
30336;DHT22;17142;47.990;7.846;2022-08-24T22:34:05;22.00;85.30
30336;DHT22;17142;47.990;7.846;2022-08-24T22:36:32;21.90;85.60
30336;DHT22;17142;47.990;7.846;2022-08-24T22:39:01;21.90;86.10
30336;DHT22;17142;47.990;7.846;2022-08-24T22:41:28;21.90;86.80
30336;DHT22;17142;47.990;7.846;2022-08-24T22:43:56;21.80;87.20
30336;DHT22;17142;47.990;7.846;2022-08-24T22:46:40;21.80;87.40
30336;DHT22;17142;47.990;7.846;2022-08-24T22:49:10;21.80;87.90
30336;DHT22;17142;47.990;7.846;2022-08-24T22:51:39;21.80;88.10
30336;DHT22;17142;47.990;7.846;2022-08-24T22:54:06;21.80;88.30
30336;DHT22;17142;47.990;7.846;2022-08-24T22:56:35;21.70;88.90
30336;DHT22;17142;47.990;7.846;2022-08-24T22:59:03;21.70;89.10
30336;DHT22;17142;47.990;7.846;2022-08-24T23:01:39;21.70;89.40
30336;DHT22;17142;47.990;7.846;2022-08-24T23:04:13;21.80;89.70
30336;DHT22;17142;47.990;7.846;2022-08-24T23:06:39;21.70;89.80
30336;DHT22;17142;47.990;7.846;2022-08-24T23:09:06;21.70;90.10
30336;DHT22;17142;47.990;7.846;2022-08-24T23:11:32;21.70;90.10
30336;DHT22;17142;47.990;7.846;2022-08-24T23:13:59;21.70;90.10
30336;DHT22;17142;47.990;7.846;2022-08-24T23:16:30;21.70;90.20
30336;DHT22;17142;47.990;7.846;2022-08-24T23:18:58;21.60;90.20
30336;DHT22;17142;47.990;7.846;2022-08-24T23:21:45;21.60;90.60
30336;DHT22;17142;47.990;7.846;2022-08-24T23:24:11;21.50;90.70
30336;DHT22;17142;47.990;7.846;2022-08-24T23:26:38;21.40;91.10
30336;DHT22;17142;47.990;7.846;2022-08-24T23:29:05;21.50;91.20
30336;DHT22;17142;47.990;7.846;2022-08-24T23:31:33;21.50;91.20
30336;DHT22;17142;47.990;7.846;2022-08-24T23:33:59;21.40;91.30
30336;DHT22;17142;47.990;7.846;2022-08-24T23:36:26;21.30;91.70
30336;DHT22;17142;47.990;7.846;2022-08-24T23:38:54;21.20;92.10
30336;DHT22;17142;47.990;7.846;2022-08-24T23:41:29;21.10;92.30
30336;DHT22;17142;47.990;7.846;2022-08-24T23:44:01;21.10;93.00
30336;DHT22;17142;47.990;7.846;2022-08-24T23:46:27;21.10;93.40
30336;DHT22;17142;47.990;7.846;2022-08-24T23:48:53;21.10;93.40
30336;DHT22;17142;47.990;7.846;2022-08-24T23:51:22;21.00;93.80
30336;DHT22;17142;47.990;7.846;2022-08-24T23:53:49;20.90;93.80
30336;DHT22;17142;47.990;7.846;2022-08-24T23:56:25;20.90;94.30
30336;DHT22;17142;47.990;7.846;2022-08-24T23:58:57;21.00;94.40
